createdAt,value
2023-02-06T00:00:16.135Z,-2.90
2023-02-06T00:00:49.768Z,-2.90
2023-02-06T00:01:22.931Z,-2.91
2023-02-06T00:01:55.358Z,-2.92
2023-02-06T00:02:27.662Z,-2.92
2023-02-06T00:02:59.943Z,-2.92
2023-02-06T00:03:32.228Z,-2.93
2023-02-06T00:04:04.746Z,-2.94
2023-02-06T00:04:37.035Z,-2.94
2023-02-06T00:05:09.314Z,-2.95
2023-02-06T00:05:41.715Z,-2.95
2023-02-06T00:06:14.947Z,-2.95
2023-02-06T00:06:47.297Z,-2.96
2023-02-06T00:07:19.560Z,-2.96
2023-02-06T00:07:51.800Z,-2.97
2023-02-06T00:08:24.467Z,-2.98
2023-02-06T00:08:56.801Z,-2.99
2023-02-06T00:09:29.374Z,-3.00
2023-02-06T00:10:01.674Z,-3.01
2023-02-06T00:10:33.973Z,-3.02
2023-02-06T00:11:08.846Z,-3.03
2023-02-06T00:11:41.110Z,-3.04
2023-02-06T00:12:13.976Z,-3.05
2023-02-06T00:12:46.268Z,-3.06
2023-02-06T00:13:18.726Z,-3.09
2023-02-06T00:13:51.127Z,-3.12
2023-02-06T00:14:23.377Z,-3.13
2023-02-06T00:14:55.694Z,-3.14
2023-02-06T00:15:28.010Z,-3.16
2023-02-06T00:16:00.735Z,-3.18
2023-02-06T00:16:34.804Z,-3.20
2023-02-06T00:17:07.076Z,-3.22
2023-02-06T00:17:39.327Z,-3.23
2023-02-06T00:18:11.767Z,-3.26
2023-02-06T00:18:44.151Z,-3.30
2023-02-06T00:19:16.442Z,-3.31
2023-02-06T00:19:48.800Z,-3.33
2023-02-06T00:20:21.117Z,-3.35
2023-02-06T00:20:53.631Z,-3.38
2023-02-06T00:21:28.232Z,-3.41
2023-02-06T00:22:00.542Z,-3.44
2023-02-06T00:22:33.192Z,-3.46
2023-02-06T00:23:05.485Z,-3.48
2023-02-06T00:23:37.897Z,-3.50
2023-02-06T00:24:10.173Z,-3.52
2023-02-06T00:24:42.440Z,-3.53
2023-02-06T00:25:14.698Z,-3.55
2023-02-06T00:25:47.009Z,-3.56
2023-02-06T00:26:19.892Z,-3.57
2023-02-06T00:26:52.172Z,-3.59
2023-02-06T00:27:25.028Z,-3.60
2023-02-06T00:27:57.362Z,-3.61
2023-02-06T00:28:29.625Z,-3.61
2023-02-06T00:29:02.052Z,-3.62
2023-02-06T00:29:34.416Z,-3.63
2023-02-06T00:30:07.127Z,-3.63
2023-02-06T00:30:39.410Z,-3.64
2023-02-06T00:31:11.893Z,-3.65
2023-02-06T00:31:44.257Z,-3.65
2023-02-06T00:32:16.702Z,-3.65
2023-02-06T00:32:49.089Z,-3.64
2023-02-06T00:33:21.396Z,-3.64
2023-02-06T00:33:53.709Z,-3.64
2023-02-06T00:34:26.241Z,-3.64
2023-02-06T00:34:58.545Z,-3.65
2023-02-06T00:35:30.803Z,-3.65
2023-02-06T00:36:03.972Z,-3.66
2023-02-06T00:36:36.267Z,-3.66
2023-02-06T00:37:09.036Z,-3.67
2023-02-06T00:37:41.354Z,-3.67
2023-02-06T00:38:13.619Z,-3.67
2023-02-06T00:38:45.913Z,-3.68
2023-02-06T00:39:18.943Z,-3.68
2023-02-06T00:39:51.201Z,-3.69
2023-02-06T00:40:23.459Z,-3.69
2023-02-06T00:40:55.817Z,-3.70
2023-02-06T00:41:28.143Z,-3.72
2023-02-06T00:42:00.414Z,-3.74
2023-02-06T00:42:32.745Z,-3.76
2023-02-06T00:43:05.597Z,-3.76
2023-02-06T00:43:37.994Z,-3.77
2023-02-06T00:44:10.305Z,-3.77
2023-02-06T00:44:42.649Z,-3.78
2023-02-06T00:45:14.934Z,-3.79
2023-02-06T00:45:55.095Z,-3.80
2023-02-06T00:46:27.470Z,-3.81
2023-02-06T00:46:59.782Z,-3.83
2023-02-06T00:47:32.048Z,-3.83
2023-02-06T00:48:04.543Z,-3.83
2023-02-06T00:48:37.472Z,-3.84
2023-02-06T00:49:09.847Z,-3.85
2023-02-06T00:49:42.527Z,-3.85
2023-02-06T00:50:15.776Z,-3.87
2023-02-06T00:50:49.868Z,-3.87
2023-02-06T00:51:22.157Z,-3.86
2023-02-06T00:51:54.462Z,-3.85
2023-02-06T00:52:26.958Z,-3.85
2023-02-06T00:52:59.220Z,-3.85
2023-02-06T00:53:31.608Z,-3.85
2023-02-06T00:54:03.986Z,-3.85
2023-02-06T00:54:36.259Z,-3.85
2023-02-06T00:55:08.553Z,-3.86
2023-02-06T00:55:40.857Z,-3.87
2023-02-06T00:56:13.153Z,-3.87
2023-02-06T00:56:45.506Z,-3.87
2023-02-06T00:57:17.832Z,-3.88
2023-02-06T00:57:50.093Z,-3.88
2023-02-06T00:58:22.640Z,-3.88
2023-02-06T00:58:54.913Z,-3.88
2023-02-06T00:59:27.178Z,-3.88
2023-02-06T00:59:59.424Z,-3.87
2023-02-06T01:00:31.814Z,-3.87
2023-02-06T01:01:04.332Z,-3.88
2023-02-06T01:01:36.608Z,-3.87
2023-02-06T01:02:09.119Z,-3.87
2023-02-06T01:02:41.693Z,-3.87
2023-02-06T01:03:14.046Z,-3.87
2023-02-06T01:03:46.434Z,-3.86
2023-02-06T01:04:18.789Z,-3.85
2023-02-06T01:04:51.047Z,-3.85
2023-02-06T01:05:23.327Z,-3.85
2023-02-06T01:05:55.642Z,-3.84
2023-02-06T01:06:27.902Z,-3.84
2023-02-06T01:07:00.272Z,-3.84
2023-02-06T01:07:32.536Z,-3.84
2023-02-06T01:08:04.971Z,-3.84
2023-02-06T01:08:37.258Z,-3.83
2023-02-06T01:09:09.559Z,-3.83
2023-02-06T01:09:41.881Z,-3.82
2023-02-06T01:10:14.211Z,-3.82
2023-02-06T01:10:46.606Z,-3.81
2023-02-06T01:11:22.655Z,-3.81
2023-02-06T01:11:55.002Z,-3.81
2023-02-06T01:12:27.343Z,-3.80
2023-02-06T01:13:00.361Z,-3.80
2023-02-06T01:13:32.613Z,-3.79
2023-02-06T01:14:04.921Z,-3.80
2023-02-06T01:14:37.371Z,-3.81
2023-02-06T01:15:12.076Z,-3.81
2023-02-06T01:15:44.424Z,-3.80
2023-02-06T01:16:19.993Z,-3.79
2023-02-06T01:16:52.293Z,-3.78
2023-02-06T01:17:24.575Z,-3.76
2023-02-06T01:17:56.919Z,-3.75
2023-02-06T01:18:29.292Z,-3.74
2023-02-06T01:19:01.604Z,-3.73
2023-02-06T01:19:33.889Z,-3.73
2023-02-06T01:20:09.081Z,-3.73
2023-02-06T01:20:41.416Z,-3.73
2023-02-06T01:21:16.270Z,-3.73
2023-02-06T01:21:48.529Z,-3.72
2023-02-06T01:22:20.850Z,-3.73
2023-02-06T01:22:53.271Z,-3.73
2023-02-06T01:23:26.110Z,-3.73
2023-02-06T01:23:58.493Z,-3.72
2023-02-06T01:24:30.959Z,-3.72
2023-02-06T01:25:04.371Z,-3.71
2023-02-06T01:25:38.156Z,-3.71
2023-02-06T01:26:13.323Z,-3.71
2023-02-06T01:26:45.621Z,-3.71
2023-02-06T01:27:17.974Z,-3.70
2023-02-06T01:27:50.260Z,-3.70
2023-02-06T01:28:22.555Z,-3.70
2023-02-06T01:28:56.094Z,-3.70
2023-02-06T01:29:28.398Z,-3.70
2023-02-06T01:30:00.673Z,-3.70
2023-02-06T01:30:33.165Z,-3.70
2023-02-06T01:31:21.175Z,-3.70
2023-02-06T01:31:53.478Z,-3.70
2023-02-06T01:32:25.747Z,-3.70
2023-02-06T01:32:58.098Z,-3.70
2023-02-06T01:33:30.490Z,-3.70
2023-02-06T01:34:02.797Z,-3.70
2023-02-06T01:34:35.247Z,-3.71
2023-02-06T01:35:10.175Z,-3.71
2023-02-06T01:35:42.486Z,-3.73
2023-02-06T01:36:15.815Z,-3.73
2023-02-06T01:36:48.102Z,-3.74
2023-02-06T01:37:20.400Z,-3.74
2023-02-06T01:37:52.666Z,-3.74
2023-02-06T01:38:24.962Z,-3.75
2023-02-06T01:38:57.234Z,-3.76
2023-02-06T01:39:29.518Z,-3.76
2023-02-06T01:40:02.430Z,-3.77
2023-02-06T01:40:34.703Z,-3.77
2023-02-06T01:41:08.314Z,-3.78
2023-02-06T01:41:40.759Z,-3.78
2023-02-06T01:42:13.689Z,-3.78
2023-02-06T01:42:46.003Z,-3.79
2023-02-06T01:43:18.759Z,-3.79
2023-02-06T01:44:10.870Z,-3.80
2023-02-06T01:44:43.363Z,-3.83
2023-02-06T01:45:40.918Z,-3.84
2023-02-06T01:46:13.296Z,-3.86
2023-02-06T01:46:47.770Z,-3.88
2023-02-06T01:47:20.100Z,-3.88
2023-02-06T01:47:56.948Z,-3.88
2023-02-06T01:48:43.903Z,-3.88
2023-02-06T01:49:24.905Z,-3.87
2023-02-06T01:49:57.307Z,-3.87
2023-02-06T01:50:33.243Z,-3.87
2023-02-06T01:51:09.329Z,-3.87
2023-02-06T01:51:42.324Z,-3.87
2023-02-06T01:52:24.771Z,-3.86
2023-02-06T01:52:57.143Z,-3.85
2023-02-06T01:53:31.225Z,-3.85
2023-02-06T01:54:07.392Z,-3.84
2023-02-06T01:54:40.753Z,-3.84
2023-02-06T01:55:13.858Z,-3.84
2023-02-06T01:55:49.731Z,-3.84
2023-02-06T01:56:23.730Z,-3.84
2023-02-06T01:57:01.456Z,-3.85
2023-02-06T01:57:34.963Z,-3.85
2023-02-06T01:58:11.193Z,-3.85
2023-02-06T01:58:46.785Z,-3.86
2023-02-06T01:59:19.976Z,-3.86
2023-02-06T01:59:58.706Z,-3.86
2023-02-06T02:00:32.093Z,-3.87
2023-02-06T02:01:06.193Z,-3.87
2023-02-06T02:01:38.553Z,-3.88
2023-02-06T02:02:13.069Z,-3.88
2023-02-06T02:02:49.118Z,-3.88
2023-02-06T02:03:21.642Z,-3.89
2023-02-06T02:03:57.629Z,-3.89
2023-02-06T02:04:33.149Z,-3.90
2023-02-06T02:05:08.402Z,-3.91
2023-02-06T02:05:45.087Z,-3.92
2023-02-06T02:06:21.479Z,-3.93
2023-02-06T02:07:12.311Z,-3.94
2023-02-06T02:07:51.520Z,-3.95
2023-02-06T02:08:32.253Z,-3.96
2023-02-06T02:09:06.968Z,-3.96
2023-02-06T02:09:39.258Z,-3.98
2023-02-06T02:10:11.833Z,-3.99
2023-02-06T02:10:44.694Z,-4.01
2023-02-06T02:11:38.327Z,-4.02
2023-02-06T02:12:10.945Z,-4.05
2023-02-06T02:12:43.263Z,-4.04
2023-02-06T02:13:15.943Z,-4.04
2023-02-06T02:13:50.945Z,-4.04
2023-02-06T02:14:23.254Z,-4.05
2023-02-06T02:14:57.680Z,-4.05
2023-02-06T02:15:42.096Z,-4.05
2023-02-06T02:16:26.692Z,-4.06
2023-02-06T02:17:10.909Z,-4.07
2023-02-06T02:18:07.274Z,-4.07
2023-02-06T02:19:02.160Z,-4.09
2023-02-06T02:20:12.186Z,-4.10
2023-02-06T02:20:50.302Z,-4.13
2023-02-06T02:22:00.106Z,-4.14
2023-02-06T02:22:53.623Z,-4.18
2023-02-06T02:23:47.834Z,-4.21
2023-02-06T02:24:31.575Z,-4.22
2023-02-06T02:25:38.053Z,-4.22
2023-02-06T02:26:16.559Z,-4.25
2023-02-06T02:27:04.018Z,-4.26
2023-02-06T02:27:50.941Z,-4.28
2023-02-06T02:28:40.853Z,-4.30
2023-02-06T02:29:21.887Z,-4.33
2023-02-06T02:30:12.834Z,-4.36
2023-02-06T02:31:25.923Z,-4.36
2023-02-06T02:32:32.263Z,-4.38
2023-02-06T02:33:16.593Z,-4.41
2023-02-06T02:33:54.391Z,-4.44
2023-02-06T02:34:52.821Z,-4.44
2023-02-06T02:35:36.827Z,-4.45
2023-02-06T02:36:14.632Z,-4.47
2023-02-06T02:37:00.166Z,-4.47
2023-02-06T02:37:41.932Z,-4.47
2023-02-06T02:38:17.049Z,-4.49
2023-02-06T02:39:07.391Z,-4.49
2023-02-06T02:39:59.434Z,-4.49
2023-02-06T02:40:41.840Z,-4.49
2023-02-06T02:41:28.519Z,-4.49
2023-02-06T02:42:13.543Z,-4.49
2023-02-06T02:43:21.394Z,-4.49
2023-02-06T02:44:11.312Z,-4.49
2023-02-06T02:45:15.303Z,-4.50
2023-02-06T02:45:53.958Z,-4.49
2023-02-06T02:46:53.632Z,-4.51
2023-02-06T02:47:33.666Z,-4.52
2023-02-06T02:48:13.021Z,-4.51
2023-02-06T02:48:49.134Z,-4.51
2023-02-06T02:49:29.695Z,-4.51
2023-02-06T02:50:03.942Z,-4.52
2023-02-06T02:50:37.985Z,-4.52
2023-02-06T02:51:11.123Z,-4.53
2023-02-06T02:51:47.376Z,-4.53
2023-02-06T02:52:19.909Z,-4.54
2023-02-06T02:52:52.933Z,-4.55
2023-02-06T02:53:25.946Z,-4.55
2023-02-06T02:53:58.282Z,-4.54
2023-02-06T02:54:30.804Z,-4.55
2023-02-06T02:55:14.985Z,-4.56
2023-02-06T02:55:47.665Z,-4.57
2023-02-06T02:56:23.865Z,-4.57
2023-02-06T02:57:17.467Z,-4.57
2023-02-06T02:57:55.740Z,-4.57
2023-02-06T02:58:32.702Z,-4.57
2023-02-06T02:59:13.392Z,-4.58
2023-02-06T02:59:47.907Z,-4.57
2023-02-06T03:00:22.607Z,-4.57
2023-02-06T03:01:00.999Z,-4.57
2023-02-06T03:01:41.635Z,-4.57
2023-02-06T03:02:22.594Z,-4.57
2023-02-06T03:02:58.259Z,-4.57
2023-02-06T03:03:32.541Z,-4.57
2023-02-06T03:04:12.674Z,-4.57
2023-02-06T03:04:50.651Z,-4.57
2023-02-06T03:05:26.329Z,-4.57
2023-02-06T03:06:13.546Z,-4.57
2023-02-06T03:07:09.389Z,-4.57
2023-02-06T03:08:00.133Z,-4.57
2023-02-06T03:09:03.728Z,-4.56
2023-02-06T03:09:56.997Z,-4.55
2023-02-06T03:10:39.019Z,-4.54
2023-02-06T03:11:16.178Z,-4.53
2023-02-06T03:12:32.659Z,-4.53
2023-02-06T03:13:21.092Z,-4.53
2023-02-06T03:13:55.720Z,-4.53
2023-02-06T03:14:44.215Z,-4.53
2023-02-06T03:15:31.343Z,-4.53
2023-02-06T03:16:09.493Z,-4.53
2023-02-06T03:16:50.014Z,-4.52
2023-02-06T03:17:35.617Z,-4.51
2023-02-06T03:18:15.091Z,-4.51
2023-02-06T03:19:26.350Z,-4.50
2023-02-06T03:20:01.605Z,-4.49
2023-02-06T03:20:38.590Z,-4.49
2023-02-06T03:21:16.326Z,-4.49
2023-02-06T03:21:50.196Z,-4.47
2023-02-06T03:22:24.647Z,-4.47
2023-02-06T03:22:59.296Z,-4.47
2023-02-06T03:23:38.307Z,-4.48
2023-02-06T03:24:17.386Z,-4.48
2023-02-06T03:24:52.329Z,-4.48
2023-02-06T03:25:33.474Z,-4.49
2023-02-06T03:26:10.526Z,-4.48
2023-02-06T03:26:45.209Z,-4.47
2023-02-06T03:27:20.260Z,-4.46
2023-02-06T03:27:54.853Z,-4.45
2023-02-06T03:28:32.905Z,-4.45
2023-02-06T03:29:09.950Z,-4.46
2023-02-06T03:29:44.386Z,-4.46
2023-02-06T03:30:19.833Z,-4.45
2023-02-06T03:30:56.518Z,-4.45
2023-02-06T03:31:34.609Z,-4.46
2023-02-06T03:32:24.159Z,-4.47
2023-02-06T03:33:08.184Z,-4.48
2023-02-06T03:33:48.569Z,-4.49
2023-02-06T03:34:35.257Z,-4.52
2023-02-06T03:35:20.586Z,-4.52
2023-02-06T03:35:53.778Z,-4.51
2023-02-06T03:36:26.128Z,-4.51
2023-02-06T03:36:58.476Z,-4.50
2023-02-06T03:37:32.427Z,-4.50
2023-02-06T03:38:08.346Z,-4.51
2023-02-06T03:38:40.810Z,-4.51
2023-02-06T03:39:13.498Z,-4.50
2023-02-06T03:39:45.912Z,-4.50
2023-02-06T03:40:19.026Z,-4.51
2023-02-06T03:40:53.543Z,-4.51
2023-02-06T03:41:31.948Z,-4.51
2023-02-06T03:42:06.194Z,-4.51
2023-02-06T03:42:42.562Z,-4.50
2023-02-06T03:43:18.805Z,-4.50
2023-02-06T03:43:53.583Z,-4.50
2023-02-06T03:44:31.818Z,-4.50
2023-02-06T03:45:29.010Z,-4.50
2023-02-06T03:46:05.781Z,-4.50
2023-02-06T03:46:42.176Z,-4.50
2023-02-06T03:47:17.227Z,-4.51
2023-02-06T03:47:51.643Z,-4.51
2023-02-06T03:48:27.770Z,-4.51
2023-02-06T03:49:07.251Z,-4.51
2023-02-06T03:49:43.381Z,-4.51
2023-02-06T03:50:17.557Z,-4.51
2023-02-06T03:50:54.385Z,-4.51
2023-02-06T03:51:35.098Z,-4.51
2023-02-06T03:52:13.304Z,-4.51
2023-02-06T03:52:49.797Z,-4.51
2023-02-06T03:53:25.544Z,-4.52
2023-02-06T03:54:02.549Z,-4.54
2023-02-06T03:54:41.044Z,-4.55
2023-02-06T03:55:55.366Z,-4.56
2023-02-06T03:56:44.639Z,-4.57
2023-02-06T03:57:21.073Z,-4.58
2023-02-06T03:58:03.462Z,-4.59
2023-02-06T03:58:35.950Z,-4.58
2023-02-06T03:59:08.381Z,-4.58
2023-02-06T03:59:40.808Z,-4.58
2023-02-06T04:00:13.972Z,-4.58
2023-02-06T04:00:48.046Z,-4.59
2023-02-06T04:01:21.630Z,-4.58
2023-02-06T04:01:58.099Z,-4.57
2023-02-06T04:02:31.562Z,-4.56
2023-02-06T04:03:05.062Z,-4.55
2023-02-06T04:03:37.429Z,-4.54
2023-02-06T04:04:09.818Z,-4.54
2023-02-06T04:04:44.547Z,-4.53
2023-02-06T04:05:18.262Z,-4.52
2023-02-06T04:05:50.602Z,-4.52
2023-02-06T04:06:23.049Z,-4.52
2023-02-06T04:07:02.586Z,-4.51
2023-02-06T04:07:36.262Z,-4.50
2023-02-06T04:08:08.557Z,-4.50
2023-02-06T04:08:40.885Z,-4.50
2023-02-06T04:09:13.183Z,-4.51
2023-02-06T04:09:45.819Z,-4.50
2023-02-06T04:10:18.558Z,-4.50
2023-02-06T04:10:50.843Z,-4.50
2023-02-06T04:11:23.190Z,-4.49
2023-02-06T04:11:55.519Z,-4.49
2023-02-06T04:12:28.103Z,-4.49
2023-02-06T04:13:00.391Z,-4.48
2023-02-06T04:13:32.759Z,-4.48
2023-02-06T04:14:05.074Z,-4.48
2023-02-06T04:14:37.751Z,-4.47
2023-02-06T04:15:10.444Z,-4.48
2023-02-06T04:15:42.872Z,-4.49
2023-02-06T04:16:15.153Z,-4.50
2023-02-06T04:16:47.601Z,-4.50
2023-02-06T04:17:38.456Z,-4.51
2023-02-06T04:18:12.193Z,-4.51
2023-02-06T04:18:44.516Z,-4.51
2023-02-06T04:19:16.858Z,-4.52
2023-02-06T04:19:49.204Z,-4.52
2023-02-06T04:20:21.539Z,-4.53
2023-02-06T04:20:53.896Z,-4.52
2023-02-06T04:21:26.355Z,-4.52
2023-02-06T04:21:58.845Z,-4.53
2023-02-06T04:22:31.124Z,-4.55
2023-02-06T04:23:03.424Z,-4.56
2023-02-06T04:23:35.838Z,-4.58
2023-02-06T04:24:09.427Z,-4.60
2023-02-06T04:24:42.414Z,-4.61
2023-02-06T04:25:14.726Z,-4.62
2023-02-06T04:25:47.777Z,-4.63
2023-02-06T04:26:20.155Z,-4.64
2023-02-06T04:26:53.118Z,-4.66
2023-02-06T04:27:25.558Z,-4.67
2023-02-06T04:27:59.174Z,-4.68
2023-02-06T04:28:31.543Z,-4.68
2023-02-06T04:29:03.915Z,-4.69
2023-02-06T04:29:36.218Z,-4.71
2023-02-06T04:30:09.307Z,-4.73
2023-02-06T04:30:41.732Z,-4.74
2023-02-06T04:31:14.160Z,-4.75
2023-02-06T04:31:46.612Z,-4.77
2023-02-06T04:32:18.916Z,-4.78
2023-02-06T04:32:51.339Z,-4.78
2023-02-06T04:33:23.709Z,-4.79
2023-02-06T04:33:56.077Z,-4.79
2023-02-06T04:34:29.362Z,-4.80
2023-02-06T04:35:01.874Z,-4.80
2023-02-06T04:35:34.512Z,-4.80
2023-02-06T04:36:07.596Z,-4.81
2023-02-06T04:36:39.952Z,-4.82
2023-02-06T04:37:15.095Z,-4.82
2023-02-06T04:37:47.443Z,-4.83
2023-02-06T04:38:19.882Z,-4.84
2023-02-06T04:38:52.251Z,-4.83
2023-02-06T04:39:24.886Z,-4.83
2023-02-06T04:39:57.194Z,-4.83
2023-02-06T04:40:29.534Z,-4.83
2023-02-06T04:41:06.672Z,-4.83
2023-02-06T04:41:38.940Z,-4.84
2023-02-06T04:42:11.234Z,-4.84
2023-02-06T04:42:43.607Z,-4.84
2023-02-06T04:43:15.955Z,-4.84
2023-02-06T04:43:48.313Z,-4.84
2023-02-06T04:44:20.938Z,-4.85
2023-02-06T04:44:53.338Z,-4.85
2023-02-06T04:45:25.662Z,-4.86
2023-02-06T04:45:58.077Z,-4.86
2023-02-06T04:46:30.568Z,-4.86
2023-02-06T04:47:03.334Z,-4.87
2023-02-06T04:47:35.707Z,-4.88
2023-02-06T04:48:08.308Z,-4.89
2023-02-06T04:48:40.600Z,-4.89
2023-02-06T04:49:13.688Z,-4.91
2023-02-06T04:49:45.957Z,-4.91
2023-02-06T04:50:18.296Z,-4.92
2023-02-06T04:50:51.019Z,-4.93
2023-02-06T04:51:23.324Z,-4.93
2023-02-06T04:51:55.674Z,-4.94
2023-02-06T04:52:27.975Z,-4.94
2023-02-06T04:53:00.273Z,-4.94
2023-02-06T04:53:32.675Z,-4.95
2023-02-06T04:54:06.202Z,-4.95
2023-02-06T04:54:38.535Z,-4.95
2023-02-06T04:55:10.998Z,-4.96
2023-02-06T04:55:43.274Z,-4.98
2023-02-06T04:56:15.553Z,-4.98
2023-02-06T04:56:49.089Z,-4.99
2023-02-06T04:57:21.376Z,-5.01
2023-02-06T04:57:53.635Z,-5.02
2023-02-06T04:58:25.950Z,-5.03
2023-02-06T04:58:58.252Z,-5.03
2023-02-06T04:59:30.654Z,-5.02
2023-02-06T05:00:05.093Z,-5.02
2023-02-06T05:00:38.770Z,-5.01
2023-02-06T05:01:11.320Z,-5.01
2023-02-06T05:01:43.751Z,-5.01
2023-02-06T05:02:16.136Z,-5.01
2023-02-06T05:02:48.537Z,-5.02
2023-02-06T05:03:20.884Z,-5.03
2023-02-06T05:03:53.213Z,-5.03
2023-02-06T05:04:25.539Z,-5.04
2023-02-06T05:04:57.860Z,-5.05
2023-02-06T05:05:30.251Z,-5.04
2023-02-06T05:06:04.217Z,-5.03
2023-02-06T05:06:36.630Z,-5.03
2023-02-06T05:07:09.022Z,-5.03
2023-02-06T05:07:41.419Z,-5.03
2023-02-06T05:08:13.816Z,-5.03
2023-02-06T05:08:46.119Z,-5.03
2023-02-06T05:09:18.443Z,-5.03
2023-02-06T05:09:50.723Z,-5.02
2023-02-06T05:10:23.204Z,-5.02
2023-02-06T05:10:56.470Z,-5.02
2023-02-06T05:11:28.837Z,-5.02
2023-02-06T05:12:01.203Z,-5.02
2023-02-06T05:12:33.467Z,-5.02
2023-02-06T05:13:05.766Z,-5.01
2023-02-06T05:13:38.051Z,-5.01
2023-02-06T05:14:10.351Z,-5.01
2023-02-06T05:14:42.622Z,-5.01
2023-02-06T05:15:14.890Z,-5.01
2023-02-06T05:15:47.525Z,-5.01
2023-02-06T05:16:23.480Z,-5.01
2023-02-06T05:16:55.846Z,-5.01
2023-02-06T05:17:29.060Z,-5.01
2023-02-06T05:18:01.384Z,-5.01
2023-02-06T05:18:33.951Z,-5.00
2023-02-06T05:19:06.375Z,-5.00
2023-02-06T05:19:38.774Z,-5.01
2023-02-06T05:20:11.343Z,-5.01
2023-02-06T05:20:43.985Z,-5.02
2023-02-06T05:21:16.321Z,-5.02
2023-02-06T05:21:48.679Z,-5.02
2023-02-06T05:22:20.982Z,-5.03
2023-02-06T05:22:53.506Z,-5.03
2023-02-06T05:23:25.830Z,-5.03
2023-02-06T05:23:58.139Z,-5.03
2023-02-06T05:24:30.571Z,-5.03
2023-02-06T05:25:02.958Z,-5.03
2023-02-06T05:25:36.491Z,-5.03
2023-02-06T05:26:08.945Z,-5.03
2023-02-06T05:26:41.207Z,-5.03
2023-02-06T05:27:13.569Z,-5.02
2023-02-06T05:27:45.922Z,-5.02
2023-02-06T05:28:18.702Z,-5.03
2023-02-06T05:28:51.282Z,-5.03
2023-02-06T05:29:24.657Z,-5.03
2023-02-06T05:29:56.980Z,-5.03
2023-02-06T05:30:29.334Z,-5.03
2023-02-06T05:31:02.882Z,-5.03
2023-02-06T05:31:35.583Z,-5.03
2023-02-06T05:32:08.042Z,-5.02
2023-02-06T05:32:41.096Z,-5.02
2023-02-06T05:33:13.820Z,-5.02
2023-02-06T05:33:50.486Z,-5.02
2023-02-06T05:34:24.455Z,-5.03
2023-02-06T05:34:56.759Z,-5.05
2023-02-06T05:35:29.195Z,-5.05
2023-02-06T05:36:06.556Z,-5.05
2023-02-06T05:36:38.908Z,-5.06
2023-02-06T05:37:11.796Z,-5.06
2023-02-06T05:37:44.139Z,-5.07
2023-02-06T05:38:16.518Z,-5.07
2023-02-06T05:38:49.834Z,-5.08
2023-02-06T05:39:22.341Z,-5.09
2023-02-06T05:39:54.640Z,-5.10
2023-02-06T05:40:27.528Z,-5.11
2023-02-06T05:41:00.111Z,-5.11
2023-02-06T05:41:32.463Z,-5.11
2023-02-06T05:42:04.978Z,-5.12
2023-02-06T05:42:37.247Z,-5.13
2023-02-06T05:43:09.594Z,-5.14
2023-02-06T05:43:42.177Z,-5.16
2023-02-06T05:44:14.502Z,-5.16
2023-02-06T05:44:46.789Z,-5.16
2023-02-06T05:45:19.099Z,-5.16
2023-02-06T05:45:51.399Z,-5.16
2023-02-06T05:46:23.753Z,-5.17
2023-02-06T05:46:56.789Z,-5.18
2023-02-06T05:47:29.199Z,-5.17
2023-02-06T05:48:01.820Z,-5.17
2023-02-06T05:48:34.969Z,-5.18
2023-02-06T05:49:07.261Z,-5.18
2023-02-06T05:49:39.544Z,-5.17
2023-02-06T05:50:12.000Z,-5.15
2023-02-06T05:50:44.347Z,-5.13
2023-02-06T05:51:17.000Z,-5.13
2023-02-06T05:51:49.312Z,-5.13
2023-02-06T05:52:21.956Z,-5.13
2023-02-06T05:52:54.259Z,-5.12
2023-02-06T05:53:27.329Z,-5.11
2023-02-06T05:53:59.704Z,-5.11
2023-02-06T05:54:32.016Z,-5.11
2023-02-06T05:55:04.837Z,-5.11
2023-02-06T05:55:37.472Z,-5.11
2023-02-06T05:56:09.960Z,-5.10
2023-02-06T05:56:42.591Z,-5.08
2023-02-06T05:57:14.925Z,-5.07
2023-02-06T05:57:47.215Z,-5.05
2023-02-06T05:58:19.582Z,-5.05
2023-02-06T05:58:51.900Z,-5.04
2023-02-06T05:59:24.521Z,-5.03
2023-02-06T05:59:56.883Z,-5.02
2023-02-06T06:00:29.254Z,-5.01
2023-02-06T06:01:01.622Z,-5.01
2023-02-06T06:01:33.920Z,-4.99
2023-02-06T06:02:06.722Z,-4.97
2023-02-06T06:02:39.595Z,-4.96
2023-02-06T06:03:12.090Z,-4.95
2023-02-06T06:03:44.472Z,-4.92
2023-02-06T06:04:17.201Z,-4.92
2023-02-06T06:04:49.630Z,-4.91
2023-02-06T06:05:22.077Z,-4.89
2023-02-06T06:05:54.822Z,-4.88
2023-02-06T06:06:27.208Z,-4.87
2023-02-06T06:06:59.607Z,-4.86
2023-02-06T06:07:31.906Z,-4.85
2023-02-06T06:08:04.562Z,-4.83
2023-02-06T06:08:36.886Z,-4.80
2023-02-06T06:09:09.237Z,-4.78
2023-02-06T06:09:41.536Z,-4.78
2023-02-06T06:10:14.473Z,-4.77
2023-02-06T06:10:49.232Z,-4.76
2023-02-06T06:11:22.005Z,-4.75
2023-02-06T06:11:54.364Z,-4.74
2023-02-06T06:12:26.677Z,-4.72
2023-02-06T06:12:59.152Z,-4.71
2023-02-06T06:13:31.499Z,-4.69
2023-02-06T06:14:03.975Z,-4.67
2023-02-06T06:14:36.323Z,-4.66
2023-02-06T06:15:09.368Z,-4.65
2023-02-06T06:15:41.762Z,-4.64
2023-02-06T06:16:14.127Z,-4.63
2023-02-06T06:16:46.454Z,-4.61
2023-02-06T06:17:18.770Z,-4.60
2023-02-06T06:17:51.034Z,-4.58
2023-02-06T06:18:23.405Z,-4.56
2023-02-06T06:18:58.603Z,-4.55
2023-02-06T06:19:30.865Z,-4.53
2023-02-06T06:20:03.820Z,-4.52
2023-02-06T06:20:36.121Z,-4.51
2023-02-06T06:21:08.541Z,-4.48
2023-02-06T06:21:42.941Z,-4.45
2023-02-06T06:22:16.832Z,-4.43
2023-02-06T06:22:49.178Z,-4.42
2023-02-06T06:23:21.530Z,-4.41
2023-02-06T06:23:54.134Z,-4.41
2023-02-06T06:24:26.533Z,-4.41
2023-02-06T06:24:58.874Z,-4.40
2023-02-06T06:25:31.171Z,-4.37
2023-02-06T06:26:03.599Z,-4.35
2023-02-06T06:26:35.959Z,-4.33
2023-02-06T06:27:10.672Z,-4.30
2023-02-06T06:27:42.952Z,-4.29
2023-02-06T06:28:15.871Z,-4.28
2023-02-06T06:28:48.583Z,-4.27
2023-02-06T06:29:20.851Z,-4.25
2023-02-06T06:29:53.171Z,-4.23
2023-02-06T06:30:25.711Z,-4.23
2023-02-06T06:31:03.745Z,-4.22
2023-02-06T06:31:36.221Z,-4.20
2023-02-06T06:32:08.609Z,-4.18
2023-02-06T06:32:40.909Z,-4.17
2023-02-06T06:33:15.396Z,-4.16
2023-02-06T06:33:47.846Z,-4.13
2023-02-06T06:34:20.177Z,-4.12
2023-02-06T06:34:52.509Z,-4.11
2023-02-06T06:35:26.057Z,-4.11
2023-02-06T06:35:58.848Z,-4.09
2023-02-06T06:36:31.263Z,-4.06
2023-02-06T06:37:03.774Z,-4.04
2023-02-06T06:37:36.282Z,-4.03
2023-02-06T06:38:08.865Z,-4.02
2023-02-06T06:38:41.548Z,-4.01
2023-02-06T06:39:14.047Z,-3.99
2023-02-06T06:39:46.486Z,-3.96
2023-02-06T06:40:18.912Z,-3.94
2023-02-06T06:40:52.433Z,-3.93
2023-02-06T06:41:24.791Z,-3.90
2023-02-06T06:41:57.117Z,-3.89
2023-02-06T06:42:29.488Z,-3.88
2023-02-06T06:43:01.829Z,-3.85
2023-02-06T06:43:34.981Z,-3.84
2023-02-06T06:44:07.280Z,-3.83
2023-02-06T06:44:39.683Z,-3.81
2023-02-06T06:45:14.911Z,-3.79
2023-02-06T06:45:47.247Z,-3.77
2023-02-06T06:46:19.738Z,-3.74
2023-02-06T06:46:52.173Z,-3.72
2023-02-06T06:47:24.719Z,-3.70
2023-02-06T06:47:57.084Z,-3.69
2023-02-06T06:48:29.567Z,-3.66
2023-02-06T06:49:08.073Z,-3.66
2023-02-06T06:49:43.181Z,-3.65
2023-02-06T06:50:15.659Z,-3.64
2023-02-06T06:50:52.192Z,-3.62
2023-02-06T06:51:26.801Z,-3.61
2023-02-06T06:52:01.658Z,-3.60
2023-02-06T06:52:34.384Z,-3.59
2023-02-06T06:53:06.869Z,-3.56
2023-02-06T06:53:40.382Z,-3.53
2023-02-06T06:54:13.228Z,-3.51
2023-02-06T06:54:53.106Z,-3.49
2023-02-06T06:55:26.824Z,-3.46
2023-02-06T06:56:04.029Z,-3.43
2023-02-06T06:56:36.422Z,-3.40
2023-02-06T06:57:09.135Z,-3.35
2023-02-06T06:57:41.500Z,-3.30
2023-02-06T06:58:13.835Z,-3.27
2023-02-06T06:58:46.357Z,-3.24
2023-02-06T06:59:18.805Z,-3.22
2023-02-06T06:59:51.203Z,-3.19
2023-02-06T07:00:23.775Z,-3.13
2023-02-06T07:00:56.758Z,-2.98
2023-02-06T07:01:29.168Z,-2.79
2023-02-06T07:02:01.510Z,-2.66
2023-02-06T07:02:34.020Z,-2.57
2023-02-06T07:03:07.488Z,-2.50
2023-02-06T07:03:39.978Z,-2.42
2023-02-06T07:04:12.625Z,-2.30
2023-02-06T07:04:45.190Z,-2.17
2023-02-06T07:05:17.816Z,-2.09
2023-02-06T07:05:51.772Z,-2.06
2023-02-06T07:06:25.783Z,-2.03
2023-02-06T07:06:58.312Z,-1.97
2023-02-06T07:07:31.314Z,-1.78
2023-02-06T07:08:03.841Z,-1.70
2023-02-06T07:08:42.111Z,-1.67
2023-02-06T07:09:14.638Z,-1.60
2023-02-06T07:09:47.185Z,-1.55
2023-02-06T07:10:19.664Z,-1.54
2023-02-06T07:10:52.229Z,-1.51
2023-02-06T07:11:26.253Z,-1.48
2023-02-06T07:11:58.599Z,-1.46
2023-02-06T07:12:31.279Z,-1.42
2023-02-06T07:13:03.655Z,-1.36
2023-02-06T07:13:36.061Z,-1.31
2023-02-06T07:14:10.524Z,-1.24
2023-02-06T07:14:43.003Z,-1.16
2023-02-06T07:15:15.664Z,-1.11
2023-02-06T07:15:48.066Z,-1.07
2023-02-06T07:16:20.455Z,-1.00
2023-02-06T07:16:53.304Z,-0.90
2023-02-06T07:17:25.617Z,-0.83
2023-02-06T07:17:58.038Z,-0.80
2023-02-06T07:18:30.387Z,-0.75
2023-02-06T07:19:02.846Z,-0.67
2023-02-06T07:19:35.185Z,-0.50
2023-02-06T07:20:08.049Z,-0.39
2023-02-06T07:20:40.532Z,-0.35
2023-02-06T07:21:15.832Z,-0.31
2023-02-06T07:21:48.325Z,-0.28
2023-02-06T07:22:21.324Z,-0.24
2023-02-06T07:22:53.752Z,-0.17
2023-02-06T07:23:26.609Z,-0.08
2023-02-06T07:23:59.276Z,-0.03
2023-02-06T07:25:24.737Z,0.06
2023-02-06T07:26:02.382Z,0.13
2023-02-06T07:26:37.135Z,0.23
2023-02-06T07:27:09.571Z,0.32
2023-02-06T07:27:41.897Z,0.42
2023-02-06T07:28:16.144Z,0.50
2023-02-06T07:31:17.242Z,0.73
2023-02-06T07:31:49.800Z,0.81
2023-02-06T07:32:22.302Z,0.88
2023-02-06T07:32:54.636Z,0.93